General Servando Canales International Airport
MMMA : rendu visible

Aérodrome :











RETROUVEZ-NOUS SUR...

 
LOGIN :

S'inscrire | Disclaimer

   EN    FR    IT 

 









Légende :    VFR   VFR Marginal   IFR   IFR Intensif   IFR Très Intensif
Visi : 
Plafond : 
>= 8 km
>= 3000ft
5 à 8 km
1000 à 3000 ft
1500m à 5 km
500 à 1000 ft
800 à 1500m
200 à 500 ft
< 800m
< 200 ft
Symboles :   Orages  Brouillard  Fortes neiges  Fortes précipitations  Vent > 20 kt






- Altitude de l'aérodrome : 25 ft
- Code IATA : MAM


MMMA - General Servando Canales International

DERNIER METAR :
  • 311546Z 03006KT 7SM SCT020CB BKN080 27/25 A3004 RMK 8/330 HZY ISOL CI DSNT PCPN 1 QUAD

METARs EXPIRÉS :
  • 311448Z 01009KT 6SM SCT020CB BKN080 26/25 A3003 RMK SLP168 5//// 957 8/330 HZ ISOL CI PCPN 1 QUAD VRB COND
  • 311343Z 34007KT 6SM SCT020TCU BKN080 25/25 A3002 RMK 8/230 HZ ISOL CI DSNT CB 1 QUAD

TAF TAF MMMA
Valide du 31 à 06h jusqu'au 01 à 06h UTC


310454Z 3106/0106 07010KT P6SM VC -RA BKN025
TEMPO 3108/3111 3SM RA BKN015CB
FM311200 04010KT P6SM VC -RA BKN020 OVC070
TEMPO 3121/0101 3SM TSRA OVC015CB
FIR MMFR / Amérique du Nord



MET'MAP, la Météo Aéronautique d'un coup d'oeil ! - Copyright ORBIFLY Décembre 2007 - Disclaimer

ORBIFLY MET'MAP TEAM :

Programmation & Développement : Alexandra Zaïnal
Sur une idée originale de : Baudouin d'Aumeries
Assistance à la programmation : Marc-Olivier Méhu
Soutien technique & logistique : Manuel Goepfert

Contact : metmap@orbifly.com




SOURCES & CREDITS :

   NOAA       Earth
Advisory